Time;durP1;ratioP1;P1;durP2;ratioP2;P2;SDS_P1;SDS_P2;PMS_P1;PMS_P2;Temp;Humidity;BMP_temperature;BMP_pressure;BME280_temperature;BME280_humidity;BME280_pressure;Samples;Min_cycle;Max_cycle;Signal;HPM_P1;HPM_P2
2022/10/15 00:01:38;;;;;;;0.85;0.60;;;22.80;58.00;;;;;;4983837;28;20031;-66
2022/10/15 00:04:05;;;;;;;0.80;0.70;;;22.80;58.00;;;;;;4989056;28;20413;-66
2022/10/15 00:06:31;;;;;;;0.73;0.63;;;22.80;58.00;;;;;;4999053;28;20535;-65
2022/10/15 00:08:57;;;;;;;0.73;0.63;;;22.80;58.10;;;;;;4992044;28;20030;-65
2022/10/15 00:11:24;;;;;;;0.73;0.60;;;22.80;58.20;;;;;;4992751;28;20096;-66
2022/10/15 00:13:53;;;;;;;0.80;0.63;;;22.70;58.10;;;;;;4998308;28;20046;-65
2022/10/15 00:16:21;;;;;;;0.60;0.60;;;22.80;58.20;;;;;;4998032;28;20379;-65
2022/10/15 00:18:47;;;;;;;0.88;0.60;;;22.80;58.20;;;;;;4998274;28;20097;-66
2022/10/15 00:21:15;;;;;;;0.55;0.55;;;22.80;58.20;;;;;;4999343;28;20105;-65
2022/10/15 00:23:42;;;;;;;0.70;0.68;;;22.80;58.20;;;;;;4978897;28;20041;-65
2022/10/15 00:26:11;;;;;;;0.63;0.60;;;22.80;58.20;;;;;;4980067;28;20507;-65
2022/10/15 00:28:37;;;;;;;;;;;22.80;58.10;;;;;;4994126;28;20026;-65
2022/10/15 00:31:08;;;;;;;0.55;0.55;;;22.80;58.20;;;;;;4984311;28;19976;-65
2022/10/15 00:33:35;;;;;;;0.50;0.50;;;22.80;58.20;;;;;;4996322;28;20041;-65
2022/10/15 00:36:11;;;;;;;0.75;0.60;;;22.80;58.20;;;;;;4992545;28;20072;-65
2022/10/15 00:38:37;;;;;;;0.70;0.70;;;22.70;58.10;;;;;;4994803;28;20025;-65
2022/10/15 00:41:04;;;;;;;0.52;0.52;;;22.80;58.20;;;;;;4997654;28;20027;-65
2022/10/15 00:43:45;;;;;;;0.65;0.60;;;22.70;58.10;;;;;;5001352;28;20045;-65
2022/10/15 00:46:36;;;;;;;0.60;0.60;;;22.70;58.10;;;;;;4980247;28;20056;-65
2022/10/15 00:49:14;;;;;;;0.57;0.57;;;22.70;58.10;;;;;;4974546;28;20385;-66
2022/10/15 00:51:43;;;;;;;1.02;0.70;;;22.70;58.20;;;;;;5000153;28;20034;-65
2022/10/15 00:54:10;;;;;;;0.88;0.60;;;22.70;58.10;;;;;;4999682;28;20077;-65
2022/10/15 00:56:38;;;;;;;0.60;0.50;;;22.70;58.10;;;;;;4982007;28;20026;-65
2022/10/15 00:59:04;;;;;;;0.52;0.50;;;22.70;58.20;;;;;;5003481;28;20025;-65
2022/10/15 01:01:30;;;;;;;0.70;0.55;;;22.70;58.10;;;;;;5000738;28;20089;-65
2022/10/15 01:03:57;;;;;;;0.60;0.50;;;22.70;58.10;;;;;;4998574;28;20026;-65
2022/10/15 01:06:24;;;;;;;0.50;0.50;;;22.70;58.10;;;;;;5001171;28;20433;-66
2022/10/15 01:08:50;;;;;;;0.50;0.50;;;22.70;58.10;;;;;;4999855;28;20113;-65
2022/10/15 01:11:46;;;;;;;0.90;0.70;;;22.70;58.10;;;;;;4998557;28;20105;-65
2022/10/15 01:14:33;;;;;;;0.60;0.60;;;22.60;58.10;;;;;;4997294;28;20040;-64
2022/10/15 01:17:03;;;;;;;0.90;0.70;;;22.70;58.20;;;;;;4998528;28;20038;-65
2022/10/15 01:19:57;;;;;;;0.77;0.60;;;22.60;58.10;;;;;;4992659;28;20486;-65
2022/10/15 01:22:39;;;;;;;0.55;0.55;;;22.70;58.10;;;;;;5001019;28;20022;-65
2022/10/15 01:25:46;;;;;;;0.68;0.60;;;22.70;58.10;;;;;;5000589;28;20449;-65
2022/10/15 01:28:21;;;;;;;0.55;0.50;;;22.70;58.20;;;;;;4993254;28;20082;-65
2022/10/15 01:30:53;;;;;;;0.80;0.70;;;22.60;58.10;;;;;;4983718;28;20076;-65
2022/10/15 01:33:42;;;;;;;0.80;0.60;;;22.60;58.10;;;;;;5002186;28;20049;-65
2022/10/15 01:36:42;;;;;;;0.90;0.60;;;22.60;58.10;;;;;;5000310;28;20311;-65
2022/10/15 01:39:11;;;;;;;;;;;22.60;58.10;;;;;;4992927;28;20129;-65
2022/10/15 01:41:43;;;;;;;0.77;0.60;;;22.60;58.10;;;;;;4999357;28;20445;-65
2022/10/15 01:44:42;;;;;;;0.68;0.60;;;22.60;58.10;;;;;;5001224;28;20018;-65
2022/10/15 01:47:14;;;;;;;0.80;0.60;;;22.60;58.10;;;;;;4992555;28;20113;-66
2022/10/15 01:49:44;;;;;;;0.57;0.50;;;22.60;58.10;;;;;;4981489;28;20032;-65
2022/10/15 01:52:18;;;;;;;0.55;0.50;;;22.60;58.10;;;;;;4996210;28;20036;-65
2022/10/15 01:54:48;;;;;;;0.57;0.50;;;22.60;58.10;;;;;;4995678;28;20037;-65
2022/10/15 01:57:15;;;;;;;0.60;0.60;;;22.60;58.10;;;;;;4997762;28;20034;-65
2022/10/15 01:59:42;;;;;;;0.50;0.50;;;22.60;58.10;;;;;;4998671;28;20390;-65
2022/10/15 02:02:08;;;;;;;0.60;0.60;;;22.60;58.10;;;;;;4996575;28;20030;-66
2022/10/15 02:04:34;;;;;;;0.50;0.50;;;22.60;58.10;;;;;;4991852;28;20441;-66
2022/10/15 02:07:10;;;;;;;0.50;0.50;;;22.60;58.20;;;;;;4972983;28;20138;-65
2022/10/15 02:10:03;;;;;;;0.50;0.50;;;22.60;58.10;;;;;;5000321;28;20030;-65
2022/10/15 02:12:31;;;;;;;0.50;0.50;;;22.60;58.10;;;;;;4998990;28;20414;-65
2022/10/15 02:15:09;;;;;;;0.95;0.70;;;22.60;58.10;;;;;;4997008;28;20045;-65
2022/10/15 02:17:50;;;;;;;0.50;0.50;;;22.60;58.10;;;;;;4998139;28;20098;-66
2022/10/15 02:20:24;;;;;;;0.60;0.60;;;22.60;58.10;;;;;;4993226;28;20129;-65
2022/10/15 02:23:02;;;;;;;0.52;0.50;;;22.60;58.10;;;;;;4993586;28;20098;-66
2022/10/15 02:25:28;;;;;;;0.75;0.55;;;22.60;58.10;;;;;;4997298;28;20038;-65
2022/10/15 02:27:56;;;;;;;0.57;0.52;;;22.60;58.10;;;;;;4997168;28;20037;-65
2022/10/15 02:30:23;;;;;;;0.93;0.50;;;22.60;58.10;;;;;;5002221;28;20586;-65
2022/10/15 02:32:52;;;;;;;0.40;0.40;;;22.60;58.10;;;;;;4993489;28;20312;-65
2022/10/15 02:35:20;;;;;;;0.50;0.50;;;22.60;58.10;;;;;;5000519;28;20017;-66
2022/10/15 02:37:49;;;;;;;0.50;0.50;;;22.60;58.10;;;;;;4998621;28;20218;-65
2022/10/15 02:40:15;;;;;;;0.50;0.50;;;22.60;58.10;;;;;;4977983;28;20061;-65
2022/10/15 02:42:40;;;;;;;0.47;0.47;;;22.60;58.10;;;;;;4996279;28;20030;-65
2022/10/15 02:45:06;;;;;;;0.55;0.40;;;22.60;58.10;;;;;;4979911;28;20026;-65
2022/10/15 02:47:32;;;;;;;0.50;0.50;;;22.60;58.10;;;;;;4977493;28;20370;-65
2022/10/15 02:49:58;;;;;;;0.50;0.50;;;22.60;58.10;;;;;;4998516;28;20034;-65
2022/10/15 02:52:23;;;;;;;0.50;0.50;;;22.60;58.10;;;;;;4991873;28;20136;-66
2022/10/15 02:54:49;;;;;;;0.60;0.40;;;22.50;58.00;;;;;;4997200;28;20455;-66
2022/10/15 02:57:14;;;;;;;0.60;0.60;;;22.60;58.10;;;;;;4998837;28;20041;-65
2022/10/15 02:59:40;;;;;;;0.60;0.60;;;22.60;58.10;;;;;;4995280;28;20030;-66
2022/10/15 03:02:06;;;;;;;0.70;0.60;;;22.50;58.10;;;;;;4994821;28;20037;-65
2022/10/15 03:04:32;;;;;;;0.50;0.50;;;22.50;58.10;;;;;;5000043;28;20030;-65
2022/10/15 03:06:57;;;;;;;0.50;0.50;;;22.50;58.10;;;;;;4979903;28;20042;-65
2022/10/15 03:09:23;;;;;;;0.40;0.40;;;22.50;58.10;;;;;;4974767;28;20421;-65
2022/10/15 03:11:49;;;;;;;0.50;0.45;;;22.50;58.10;;;;;;4998664;28;20042;-65
2022/10/15 03:14:14;;;;;;;0.60;0.50;;;22.50;58.10;;;;;;4992109;28;20525;-65
2022/10/15 03:16:40;;;;;;;0.65;0.55;;;22.50;58.10;;;;;;4997809;28;20026;-66
2022/10/15 03:19:06;;;;;;;0.55;0.47;;;22.50;58.10;;;;;;4998606;28;20023;-65
2022/10/15 03:21:32;;;;;;;0.45;0.45;;;22.50;58.10;;;;;;4979978;28;20054;-65
2022/10/15 03:23:58;;;;;;;0.77;0.73;;;22.50;58.10;;;;;;4997932;28;20026;-65
2022/10/15 03:26:24;;;;;;;0.50;0.50;;;22.50;58.10;;;;;;4994468;28;20042;-65
2022/10/15 03:28:50;;;;;;;0.50;0.50;;;22.50;58.10;;;;;;4999461;28;20032;-66
2022/10/15 03:31:15;;;;;;;0.40;0.40;;;22.50;58.10;;;;;;4998668;28;20527;-65
2022/10/15 03:33:41;;;;;;;0.40;0.40;;;22.50;58.10;;;;;;4999274;28;20034;-65
2022/10/15 03:36:07;;;;;;;0.80;0.60;;;22.50;58.10;;;;;;4996851;28;20087;-65
2022/10/15 03:38:33;;;;;;;0.50;0.50;;;22.50;58.60;;;;;;4998930;28;20026;-66
2022/10/15 03:40:58;;;;;;;0.52;0.50;;;22.50;58.10;;;;;;4995381;28;20312;-65
2022/10/15 03:43:24;;;;;;;0.40;0.40;;;22.50;58.10;;;;;;4996858;28;20030;-66
2022/10/15 03:45:51;;;;;;;0.40;0.40;;;22.50;58.10;;;;;;4997051;28;20109;-65
2022/10/15 03:48:17;;;;;;;0.50;0.50;;;22.50;58.60;;;;;;4997629;28;20065;-65
2022/10/15 03:50:44;;;;;;;0.45;0.45;;;22.50;58.00;;;;;;4990385;28;20388;-66
2022/10/15 03:53:10;;;;;;;0.40;0.40;;;22.50;58.00;;;;;;4989125;28;20044;-65
2022/10/15 03:55:35;;;;;;;0.40;0.40;;;22.50;58.60;;;;;;4998357;28;20405;-64
2022/10/15 03:58:01;;;;;;;0.40;0.40;;;22.50;58.00;;;;;;4997342;28;20038;-65
2022/10/15 04:00:27;;;;;;;0.50;0.50;;;22.50;58.00;;;;;;4996642;28;20192;-65
2022/10/15 04:02:52;;;;;;;0.50;0.50;;;22.50;58.10;;;;;;4985222;28;20125;-66
2022/10/15 04:05:18;;;;;;;0.52;0.52;;;22.50;58.00;;;;;;5002538;28;20035;-65
2022/10/15 04:07:44;;;;;;;0.40;0.40;;;22.50;58.00;;;;;;5003304;28;20038;-65
2022/10/15 04:10:09;;;;;;;0.60;0.60;;;22.40;58.00;;;;;;5000727;28;20072;-65
2022/10/15 04:12:35;;;;;;;0.40;0.40;;;22.50;58.00;;;;;;5004743;28;20026;-65
2022/10/15 04:15:01;;;;;;;0.60;0.50;;;22.50;58.00;;;;;;4998976;28;20058;-65
2022/10/15 04:17:26;;;;;;;0.50;0.50;;;22.40;58.00;;;;;;4982264;28;20442;-65
2022/10/15 04:19:52;;;;;;;0.52;0.50;;;22.50;58.00;;;;;;4999671;28;20030;-66
2022/10/15 04:22:18;;;;;;;0.43;0.43;;;22.50;58.00;;;;;;5000591;28;20038;-65
2022/10/15 04:24:43;;;;;;;0.32;0.32;;;22.40;58.00;;;;;;4999565;28;20393;-65
2022/10/15 04:27:11;;;;;;;0.60;0.60;;;22.40;58.00;;;;;;4994328;28;20030;-64
2022/10/15 04:29:37;;;;;;;0.57;0.50;;;22.40;58.00;;;;;;4991846;28;20168;-65
2022/10/15 04:32:02;;;;;;;0.50;0.50;;;22.40;58.00;;;;;;5001083;28;20472;-65
2022/10/15 04:34:28;;;;;;;0.52;0.50;;;22.40;58.00;;;;;;5000777;28;20026;-64
2022/10/15 04:36:54;;;;;;;0.47;0.47;;;22.40;58.00;;;;;;4993151;28;20023;-65
2022/10/15 04:39:20;;;;;;;0.50;0.50;;;22.40;58.00;;;;;;4998563;28;20068;-66
2022/10/15 04:41:46;;;;;;;0.60;0.50;;;22.40;58.00;;;;;;4995304;28;20454;-65
2022/10/15 04:44:12;;;;;;;0.40;0.40;;;22.40;58.00;;;;;;4995802;28;20739;-65
2022/10/15 04:46:38;;;;;;;0.47;0.47;;;22.40;58.10;;;;;;5002197;28;20101;-65
2022/10/15 04:49:03;;;;;;;0.40;0.40;;;22.40;58.10;;;;;;5004390;28;20121;-65
2022/10/15 04:51:29;;;;;;;0.77;0.60;;;22.40;58.20;;;;;;5001572;28;20029;-65
2022/10/15 04:53:55;;;;;;;0.75;0.52;;;22.40;58.10;;;;;;5001890;28;20030;-65
2022/10/15 04:56:21;;;;;;;0.52;0.40;;;22.40;58.10;;;;;;4976208;28;20031;-65
2022/10/15 04:58:48;;;;;;;0.40;0.40;;;22.40;58.10;;;;;;4999538;28;20459;-65
2022/10/15 05:01:16;;;;;;;1.05;0.60;;;22.40;58.10;;;;;;4997391;28;20026;-66
2022/10/15 05:03:44;;;;;;;0.80;0.40;;;22.40;58.20;;;;;;4996135;28;20449;-65
2022/10/15 05:06:12;;;;;;;1.23;0.60;;;22.40;58.20;;;;;;4994211;28;20549;-65
2022/10/15 05:08:41;;;;;;;0.50;0.50;;;22.40;58.20;;;;;;4985060;28;20061;-65
2022/10/15 05:11:09;;;;;;;0.68;0.50;;;22.40;58.20;;;;;;4996167;28;20493;-65
2022/10/15 05:13:36;;;;;;;0.70;0.60;;;22.40;58.20;;;;;;4995008;28;20031;-65
2022/10/15 05:16:29;;;;;;;0.43;0.43;;;22.40;58.20;;;;;;4998220;28;20054;-65
2022/10/15 05:18:57;;;;;;;0.55;0.50;;;22.40;58.20;;;;;;4991670;28;20070;-65
2022/10/15 05:21:23;;;;;;;0.50;0.50;;;22.40;58.20;;;;;;4990663;28;20026;-65
2022/10/15 05:23:49;;;;;;;0.50;0.50;;;22.40;58.20;;;;;;4985350;28;20034;-65
2022/10/15 05:26:18;;;;;;;0.60;0.50;;;22.40;58.20;;;;;;4994574;28;20042;-64
2022/10/15 05:28:44;;;;;;;0.40;0.40;;;22.40;58.10;;;;;;5001950;28;20493;-66
2022/10/15 05:31:15;;;;;;;0.50;0.50;;;22.40;58.20;;;;;;4979321;28;20164;-65
2022/10/15 05:33:41;;;;;;;0.47;0.40;;;22.40;58.20;;;;;;5000069;28;20462;-65
2022/10/15 05:36:18;;;;;;;0.40;0.40;;;22.40;58.10;;;;;;5000897;28;20018;-64
2022/10/15 05:38:45;;;;;;;0.50;0.50;;;22.40;58.20;;;;;;4998973;28;20045;-65
2022/10/15 05:41:10;;;;;;;0.40;0.40;;;22.40;58.20;;;;;;4997908;28;20023;-65
2022/10/15 05:43:36;;;;;;;0.60;0.40;;;22.40;58.20;;;;;;5000886;28;20495;-65
2022/10/15 05:46:02;;;;;;;0.85;0.50;;;22.30;58.10;;;;;;4996064;28;20134;-65
2022/10/15 05:48:28;;;;;;;0.55;0.50;;;22.30;58.10;;;;;;4997456;28;20038;-65
2022/10/15 05:50:58;;;;;;;0.52;0.50;;;22.30;58.10;;;;;;5000224;28;20018;-65
2022/10/15 05:53:24;;;;;;;0.30;0.30;;;22.30;58.10;;;;;;4995828;28;20546;-65
2022/10/15 05:55:52;;;;;;;0.90;0.50;;;22.30;58.10;;;;;;4992416;28;20025;-66
2022/10/15 05:58:18;;;;;;;0.50;0.47;;;22.30;58.10;;;;;;4989442;28;20112;-65
2022/10/15 06:00:44;;;;;;;1.45;0.50;;;22.30;58.10;;;;;;4994628;28;20077;-66
2022/10/15 06:03:13;;;;;;;1.05;0.50;;;22.30;58.10;;;;;;5000695;28;20034;-66
2022/10/15 06:05:39;;;;;;;0.50;0.50;;;22.30;58.10;;;;;;4995029;28;20033;-65
2022/10/15 06:08:05;;;;;;;0.52;0.50;;;22.30;58.10;;;;;;5000735;28;20042;-65
2022/10/15 06:10:34;;;;;;;0.50;0.50;;;22.30;58.10;;;;;;5000628;28;20061;-65
2022/10/15 06:13:00;;;;;;;0.50;0.50;;;22.30;58.10;;;;;;4998070;28;20185;-65
2022/10/15 06:15:26;;;;;;;0.40;0.40;;;22.30;58.20;;;;;;4998427;28;20656;-65
2022/10/15 06:17:53;;;;;;;0.60;0.60;;;22.30;58.10;;;;;;4998126;28;20034;-65
2022/10/15 06:20:18;;;;;;;0.40;0.40;;;22.30;58.10;;;;;;4999436;28;20034;-65
2022/10/15 06:22:44;;;;;;;0.60;0.50;;;22.30;58.10;;;;;;4998998;28;20045;-64
2022/10/15 06:25:10;;;;;;;0.50;0.50;;;22.30;58.10;;;;;;4996781;28;20113;-65
2022/10/15 06:27:35;;;;;;;0.65;0.50;;;22.30;58.10;;;;;;5000611;28;20385;-64
2022/10/15 06:30:01;;;;;;;0.40;0.40;;;22.30;58.10;;;;;;4998346;28;20052;-65
2022/10/15 06:32:26;;;;;;;0.55;0.40;;;22.30;58.10;;;;;;4993640;28;20117;-65
2022/10/15 06:34:52;;;;;;;0.40;0.40;;;22.30;58.20;;;;;;4995081;28;20140;-65
2022/10/15 06:37:18;;;;;;;0.68;0.50;;;22.30;58.20;;;;;;4996226;28;20037;-65
2022/10/15 06:39:45;;;;;;;0.40;0.40;;;22.30;58.20;;;;;;4992477;28;20022;-65
2022/10/15 06:42:11;;;;;;;0.70;0.40;;;22.30;58.20;;;;;;4996327;28;20022;-65
2022/10/15 06:44:37;;;;;;;0.90;0.35;;;22.30;58.20;;;;;;4997262;28;20033;-65
2022/10/15 06:47:03;;;;;;;1.33;0.50;;;22.30;58.20;;;;;;4998910;28;20033;-65
2022/10/15 06:49:28;;;;;;;0.55;0.40;;;22.30;58.20;;;;;;4997687;28;20034;-65
2022/10/15 06:51:54;;;;;;;0.60;0.60;;;22.30;58.20;;;;;;4998953;28;20040;-65
2022/10/15 06:54:19;;;;;;;0.88;0.60;;;22.20;58.20;;;;;;4997796;28;20046;-65
2022/10/15 06:56:45;;;;;;;0.40;0.40;;;22.20;58.20;;;;;;4994818;28;20445;-64
2022/10/15 06:59:11;;;;;;;0.40;0.40;;;22.20;58.20;;;;;;4993871;28;20065;-64
2022/10/15 07:01:36;;;;;;;0.65;0.43;;;22.20;58.20;;;;;;4994846;28;20096;-64
2022/10/15 07:04:02;;;;;;;0.73;0.52;;;22.20;58.20;;;;;;4997525;28;20030;-65
2022/10/15 07:06:27;;;;;;;0.30;0.30;;;22.20;58.20;;;;;;4998349;28;20103;-65
2022/10/15 07:08:53;;;;;;;0.77;0.50;;;22.20;58.20;;;;;;4997013;28;20045;-66
2022/10/15 07:11:19;;;;;;;0.70;0.50;;;22.20;58.30;;;;;;4987850;28;20031;-65
2022/10/15 07:13:44;;;;;;;0.50;0.50;;;22.20;58.30;;;;;;4995699;28;20066;-64
2022/10/15 07:16:11;;;;;;;0.47;0.40;;;22.30;58.30;;;;;;4995792;28;20043;-65
2022/10/15 07:18:37;;;;;;;0.40;0.40;;;22.20;58.30;;;;;;4992379;28;20133;-65
2022/10/15 07:21:05;;;;;;;0.57;0.40;;;22.20;58.30;;;;;;4997962;28;20133;-64
2022/10/15 07:23:30;;;;;;;0.82;0.50;;;22.20;58.30;;;;;;4980534;28;20035;-65
2022/10/15 07:25:57;;;;;;;0.40;0.40;;;22.20;58.30;;;;;;4975383;28;20137;-64
2022/10/15 07:28:23;;;;;;;0.88;0.50;;;22.20;58.30;;;;;;4983910;28;20026;-65
2022/10/15 07:30:49;;;;;;;0.77;0.40;;;22.20;58.30;;;;;;4981519;28;20038;-65
2022/10/15 07:33:15;;;;;;;0.40;0.40;;;22.20;58.30;;;;;;5001537;28;20030;-65
2022/10/15 07:35:41;;;;;;;0.40;0.40;;;22.20;58.30;;;;;;4966284;28;20018;-65
2022/10/15 07:38:06;;;;;;;0.73;0.50;;;22.20;58.30;;;;;;5001087;28;20419;-65
2022/10/15 07:40:32;;;;;;;1.02;0.50;;;22.20;58.30;;;;;;4999792;28;20037;-64
2022/10/15 07:42:59;;;;;;;0.40;0.40;;;22.20;58.30;;;;;;4983383;28;20545;-65
2022/10/15 07:45:25;;;;;;;0.70;0.50;;;22.20;58.30;;;;;;4984467;28;20035;-64
2022/10/15 07:47:52;;;;;;;0.68;0.50;;;22.20;58.30;;;;;;4986845;28;20124;-65
2022/10/15 07:50:18;;;;;;;0.50;0.50;;;22.20;58.30;;;;;;5001529;28;20026;-64
2022/10/15 07:52:44;;;;;;;0.40;0.40;;;22.20;58.30;;;;;;5002845;28;20019;-64
2022/10/15 07:55:10;;;;;;;1.05;0.40;;;22.20;58.30;;;;;;5002704;28;20026;-65
2022/10/15 07:57:35;;;;;;;0.40;0.40;;;22.20;58.30;;;;;;4986318;28;20537;-65
2022/10/15 08:00:01;;;;;;;0.60;0.50;;;22.20;58.30;;;;;;4999098;28;20022;-65
2022/10/15 08:02:27;;;;;;;0.60;0.40;;;22.20;58.80;;;;;;4982004;28;20034;-65
2022/10/15 08:04:52;;;;;;;0.82;0.50;;;22.20;58.30;;;;;;4999612;28;20519;-65
2022/10/15 08:07:18;;;;;;;0.57;0.50;;;22.20;58.30;;;;;;5001852;28;20037;-65
2022/10/15 08:09:44;;;;;;;0.65;0.50;;;22.20;58.30;;;;;;5003120;28;20529;-65
2022/10/15 08:12:09;;;;;;;0.50;0.50;;;22.20;58.30;;;;;;5000450;28;20030;-65
2022/10/15 08:14:35;;;;;;;0.57;0.40;;;22.20;58.30;;;;;;5001055;28;20088;-64
2022/10/15 08:17:05;;;;;;;0.40;0.40;;;22.20;58.40;;;;;;4998518;28;20081;-65
2022/10/15 08:19:31;;;;;;;0.55;0.40;;;22.20;58.30;;;;;;4995473;28;20030;-65
2022/10/15 08:21:57;;;;;;;0.45;0.43;;;22.20;58.30;;;;;;4984264;28;20022;-65
2022/10/15 08:24:23;;;;;;;0.40;0.40;;;22.20;58.30;;;;;;4982214;28;20031;-64
2022/10/15 08:26:48;;;;;;;0.30;0.30;;;22.10;58.20;;;;;;4996957;28;20114;-65
2022/10/15 08:29:14;;;;;;;0.60;0.40;;;22.20;58.20;;;;;;4990272;28;20098;-64
2022/10/15 08:31:41;;;;;;;0.30;0.30;;;22.20;58.20;;;;;;4995988;28;20085;-65
2022/10/15 08:34:07;;;;;;;0.68;0.52;;;22.20;58.20;;;;;;4995439;28;20033;-65
2022/10/15 08:36:33;;;;;;;0.55;0.40;;;22.20;58.30;;;;;;4983602;28;20398;-65
2022/10/15 08:38:59;;;;;;;0.57;0.40;;;22.20;58.20;;;;;;4982629;28;20149;-64
2022/10/15 08:41:30;;;;;;;0.40;0.40;;;22.20;58.70;;;;;;5001867;28;20084;-65
2022/10/15 08:43:56;;;;;;;0.40;0.40;;;22.20;58.20;;;;;;4999395;28;20041;-64
2022/10/15 08:46:39;;;;;;;0.45;0.40;;;22.20;58.20;;;;;;5001644;28;20429;-64
2022/10/15 08:49:13;;;;;;;0.40;0.40;;;22.20;58.10;;;;;;5000732;28;20461;-64
2022/10/15 08:51:52;;;;;;;0.30;0.30;;;22.20;58.20;;;;;;5003475;28;20057;-65
2022/10/15 08:54:18;;;;;;;0.32;0.32;;;22.20;58.20;;;;;;4995292;28;20041;-65
2022/10/15 08:56:47;;;;;;;0.47;0.40;;;22.20;58.20;;;;;;4996018;28;20030;-66
2022/10/15 08:59:37;;;;;;;0.43;0.43;;;22.20;58.20;;;;;;4984579;28;20080;-64
2022/10/15 09:02:20;;;;;;;0.30;0.30;;;22.20;58.20;;;;;;5000746;28;20026;-66
2022/10/15 09:04:58;;;;;;;0.40;0.30;;;22.20;58.20;;;;;;4996120;28;20474;-65
2022/10/15 09:07:54;;;;;;;0.40;0.40;;;22.20;58.20;;;;;;4995978;28;20037;-64
2022/10/15 09:10:31;;;;;;;0.30;0.30;;;22.20;58.20;;;;;;4992240;28;20537;-64
2022/10/15 09:13:04;;;;;;;0.40;0.40;;;22.20;58.20;;;;;;4991306;28;20465;-64
2022/10/15 09:15:46;;;;;;;0.60;0.45;;;22.20;58.20;;;;;;4999924;28;20038;-65
2022/10/15 09:18:22;;;;;;;0.63;0.40;;;22.20;58.20;;;;;;4998790;28;20019;-65
2022/10/15 09:20:48;;;;;;;0.40;0.40;;;22.20;58.20;;;;;;4993917;28;20382;-65
2022/10/15 09:23:18;;;;;;;1.63;0.32;;;22.20;58.20;;;;;;5001405;28;20056;-65
2022/10/15 09:25:50;;;;;;;0.32;0.32;;;22.20;58.20;;;;;;5003171;28;20080;-66
2022/10/15 09:28:20;;;;;;;0.40;0.40;;;22.20;58.20;;;;;;4997073;28;20026;-64
2022/10/15 09:30:54;;;;;;;0.60;0.40;;;22.20;58.20;;;;;;4998849;28;20030;-65
2022/10/15 09:33:46;;;;;;;0.75;0.30;;;22.20;58.20;;;;;;4999985;28;20107;-65
2022/10/15 09:36:28;;;;;;;0.30;0.30;;;22.20;58.10;;;;;;4998705;28;20069;-65
2022/10/15 09:39:15;;;;;;;1.52;0.40;;;22.20;58.30;;;;;;4995585;28;20354;-65
2022/10/15 09:41:59;;;;;;;0.43;0.30;;;22.20;58.30;;;;;;4997633;28;20554;-65
2022/10/15 09:44:32;;;;;;;0.40;0.40;;;22.20;58.30;;;;;;4997218;28;20037;-65
2022/10/15 09:46:58;;;;;;;0.68;0.43;;;22.20;58.30;;;;;;4994498;28;20018;-64
2022/10/15 09:49:26;;;;;;;0.50;0.40;;;22.20;58.20;;;;;;4989418;28;20367;-65
2022/10/15 09:52:26;;;;;;;0.30;0.30;;;22.20;58.20;;;;;;4997471;28;20537;-65
2022/10/15 09:55:23;;;;;;;0.95;0.40;;;22.20;58.20;;;;;;4949119;28;20047;-66
2022/10/15 09:57:53;;;;;;;1.15;0.50;;;22.20;58.20;;;;;;4998123;28;20018;-69
2022/10/15 10:00:19;;;;;;;1.45;0.40;;;22.30;59.60;;;;;;4969586;28;20030;-67
2022/10/15 10:03:04;;;;;;;0.68;0.40;;;22.30;59.30;;;;;;4999016;28;20054;-68
2022/10/15 10:05:32;;;;;;;0.93;0.40;;;22.30;59.60;;;;;;5003980;28;20062;-67
2022/10/15 10:08:18;;;;;;;0.30;0.30;;;22.30;59.20;;;;;;5005159;28;20497;-67
2022/10/15 10:10:52;;;;;;;1.45;0.52;;;22.40;59.30;;;;;;5003053;28;20072;-67
2022/10/15 10:13:23;;;;;;;0.63;0.50;;;22.40;59.30;;;;;;5003885;28;20022;-69
2022/10/15 10:15:52;;;;;;;0.50;0.40;;;22.40;59.20;;;;;;5002560;28;20053;-67
2022/10/15 10:18:22;;;;;;;0.45;0.45;;;22.40;59.00;;;;;;5004941;28;20030;-68
2022/10/15 10:21:00;;;;;;;0.40;0.40;;;22.50;59.00;;;;;;4998957;28;20049;-70
2022/10/15 10:23:38;;;;;;;0.40;0.40;;;22.50;59.00;;;;;;4993421;28;20060;-70
2022/10/15 10:26:09;;;;;;;0.52;0.40;;;22.50;58.90;;;;;;4964764;28;20049;-67
2022/10/15 10:28:52;;;;;;;0.52;0.35;;;22.50;58.90;;;;;;4998189;28;20033;-67
2022/10/15 10:31:27;;;;;;;0.95;0.50;;;22.60;59.20;;;;;;4999367;28;20030;-68
2022/10/15 10:33:53;;;;;;;0.60;0.38;;;22.60;59.00;;;;;;4994743;28;20065;-67
2022/10/15 10:36:35;;;;;;;0.85;0.50;;;22.60;58.80;;;;;;4993064;28;20078;-69
2022/10/15 10:39:13;;;;;;;1.45;0.65;;;22.60;58.70;;;;;;4999699;28;20046;-67
2022/10/15 10:41:56;;;;;;;1.27;0.50;;;22.70;58.50;;;;;;4997495;28;20521;-68
2022/10/15 10:44:30;;;;;;;0.40;0.40;;;22.70;58.40;;;;;;5000211;28;20044;-67
2022/10/15 10:47:18;;;;;;;1.05;0.60;;;22.70;58.50;;;;;;5001187;28;20485;-68
2022/10/15 10:49:46;;;;;;;0.60;0.50;;;22.80;58.40;;;;;;4997510;28;20349;-67
2022/10/15 10:52:28;;;;;;;0.80;0.47;;;22.80;58.40;;;;;;5000702;28;20330;-67
2022/10/15 10:54:59;;;;;;;0.98;0.50;;;22.80;58.30;;;;;;5002674;28;20105;-66
2022/10/15 10:57:53;;;;;;;2.00;0.70;;;22.80;58.30;;;;;;4997304;28;20500;-68
2022/10/15 11:00:24;;;;;;;0.90;0.50;;;22.80;58.30;;;;;;4996021;28;20033;-67
2022/10/15 11:02:51;;;;;;;1.50;0.50;;;22.90;58.30;;;;;;5001144;28;20498;-67
2022/10/15 11:05:25;;;;;;;0.73;0.50;;;22.90;58.20;;;;;;4998925;28;20054;-67
2022/10/15 11:07:59;;;;;;;0.50;0.45;;;22.90;58.20;;;;;;4997854;28;20045;-67
2022/10/15 11:10:37;;;;;;;1.42;0.63;;;22.90;58.20;;;;;;4998492;28;20085;-67
2022/10/15 11:13:43;;;;;;;0.50;0.50;;;22.90;58.20;;;;;;4998761;28;20026;-66
2022/10/15 11:16:29;;;;;;;0.73;0.50;;;22.90;58.20;;;;;;4993555;28;20043;-65
2022/10/15 11:19:00;;;;;;;1.63;0.50;;;22.90;58.20;;;;;;4993497;28;20033;-66
2022/10/15 11:21:53;;;;;;;0.50;0.40;;;22.90;58.20;;;;;;4998841;28;20022;-67
2022/10/15 11:24:29;;;;;;;0.82;0.50;;;23.00;58.20;;;;;;4998820;28;20034;-67
2022/10/15 11:27:30;;;;;;;0.43;0.40;;;23.00;58.30;;;;;;4998823;28;20027;-68
2022/10/15 11:30:09;;;;;;;1.30;0.55;;;23.00;58.30;;;;;;4969841;28;20039;-68
2022/10/15 11:32:44;;;;;;;0.47;0.40;;;23.00;58.20;;;;;;4981534;28;20047;-67
2022/10/15 11:35:15;;;;;;;0.93;0.60;;;23.00;58.30;;;;;;4997830;28;20331;-67
2022/10/15 11:37:59;;;;;;;0.57;0.50;;;23.00;58.30;;;;;;4994637;28;20023;-68
2022/10/15 11:40:39;;;;;;;0.65;0.60;;;23.00;58.50;;;;;;4985960;28;20030;-67
2022/10/15 11:43:14;;;;;;;0.82;0.50;;;23.00;58.60;;;;;;5003425;28;20034;-67
2022/10/15 11:46:01;;;;;;;0.80;0.50;;;23.00;58.60;;;;;;4999759;28;20105;-67
2022/10/15 11:49:10;;;;;;;0.65;0.45;;;23.00;58.50;;;;;;5000218;28;20038;-67
2022/10/15 11:51:36;;;;;;;0.45;0.40;;;23.00;58.50;;;;;;4993563;28;20049;-68
2022/10/15 11:54:16;;;;;;;1.45;0.50;;;23.00;58.50;;;;;;4997418;28;20414;-66
2022/10/15 11:56:49;;;;;;;0.68;0.50;;;23.00;58.50;;;;;;4995250;28;20041;-67
2022/10/15 11:59:24;;;;;;;0.68;0.50;;;23.00;58.60;;;;;;4998976;28;20022;-72
2022/10/15 12:02:19;;;;;;;0.80;0.50;;;23.00;58.60;;;;;;4992906;28;20030;-68
2022/10/15 12:05:13;;;;;;;1.58;0.40;;;23.00;58.60;;;;;;4985867;28;20489;-68
2022/10/15 12:07:42;;;;;;;0.45;0.30;;;23.00;59.20;;;;;;4995296;28;20030;-68
2022/10/15 12:10:11;;;;;;;0.65;0.30;;;23.00;58.80;;;;;;4995113;28;20056;-68
2022/10/15 12:12:52;;;;;;;0.95;0.47;;;23.00;58.70;;;;;;4999023;28;20526;-67
2022/10/15 12:15:29;;;;;;;0.82;0.40;;;23.00;58.70;;;;;;4996313;28;20054;-68
2022/10/15 12:18:33;;;;;;;1.02;0.60;;;23.00;58.70;;;;;;4993628;28;20030;-68
2022/10/15 12:20:58;;;;;;;0.77;0.50;;;22.90;58.70;;;;;;4983861;28;20022;-68
2022/10/15 12:23:36;;;;;;;0.32;0.30;;;22.90;58.70;;;;;;4978737;28;20021;-68
2022/10/15 12:26:21;;;;;;;0.70;0.40;;;22.90;58.70;;;;;;5001285;28;20030;-67
2022/10/15 12:28:49;;;;;;;0.57;0.40;;;22.90;58.70;;;;;;5000306;28;20547;-68
2022/10/15 12:31:19;;;;;;;0.50;0.50;;;23.00;58.70;;;;;;4997530;28;20034;-67
2022/10/15 12:33:46;;;;;;;0.90;0.47;;;23.00;58.80;;;;;;4998053;28;20125;-68
2022/10/15 12:36:18;;;;;;;0.68;0.43;;;22.90;58.70;;;;;;4996704;28;20090;-68
2022/10/15 12:39:22;;;;;;;0.43;0.38;;;22.90;58.70;;;;;;5001275;28;20049;-68
2022/10/15 12:41:48;;;;;;;0.73;0.50;;;22.90;58.80;;;;;;4926628;29;20112;-68
2022/10/15 12:44:32;;;;;;;0.40;0.40;;;23.00;58.80;;;;;;4986735;28;20038;-68
2022/10/15 12:46:58;;;;;;;0.30;0.30;;;22.90;58.80;;;;;;4999423;28;20031;-68
2022/10/15 12:49:30;;;;;;;0.75;0.50;;;23.00;58.70;;;;;;4998108;28;20588;-68
2022/10/15 12:52:01;;;;;;;0.50;0.40;;;22.90;58.80;;;;;;4999793;28;20022;-68
2022/10/15 12:54:35;;;;;;;0.68;0.40;;;23.00;58.80;;;;;;4996089;28;20509;-68
2022/10/15 12:57:03;;;;;;;0.40;0.40;;;23.00;58.70;;;;;;4979565;28;20095;-68
2022/10/15 12:59:53;;;;;;;0.57;0.50;;;23.00;58.70;;;;;;4967860;28;20034;-67
2022/10/15 13:02:40;;;;;;;0.63;0.47;;;22.90;58.90;;;;;;4995527;28;20061;-68
2022/10/15 13:05:22;;;;;;;0.75;0.50;;;23.00;58.90;;;;;;4997767;28;20022;-68
2022/10/15 13:07:47;;;;;;;0.70;0.50;;;22.90;58.80;;;;;;4982875;28;20069;-68
2022/10/15 13:10:34;;;;;;;0.50;0.30;;;22.90;58.90;;;;;;4984897;28;20073;-67